Nearby METAR Reports

 

KAVP - Avoca/Wilkes B., Pennsylvania, USA
Distance from station: NE 13mi, 20km
Updated: Wed, 12-May-2021 4:22am PDT
Overcast
Overcast
 Wind from WNW
Wind: WNW 6 mph , 9 km/h
Temperature: 43°F , 6°C
Wind Chill: 39°F , 4°C
Dew Point: 32°F , 0°C
Humidity: 66%
Barometer: 30.20 inHg , 1022.7 hPa
Clouds: Overcast
Visibility: 10 miles , 16 km
Cloud details: Partly Cloudy 2600 ft
Mostly Cloudy 3400 ft
Overcast 4500 ft
2021/05/12 11:22 KAVP 121122Z 29005KT 10SM SCT026 BKN034 OVC045 06/00 A3020 RMK AO2 T00560000
KMPO - Mt. Pocono, Pennsylvania, USA
Distance from station: ESE 28mi, 45km
Updated: Wed, 12-May-2021 3:53am PDT
Overcast
Overcast
 Wind from WNW
Wind: WNW 13 mph , 20 km/h
Temperature: 37°F , 3°C
Wind Chill: 29°F , -2°C
Dew Point: 30°F , -1°C
Humidity: 75%
Barometer: 30.13 inHg , 1020.3 hPa
Clouds: Overcast
Visibility: 10 miles , 16 km
Cloud details: Overcast 1800 ft
2021/05/12 10:53 KMPO 121053Z AUTO 29011KT 10SM OVC018 03/M01 A3013 RMK AO2 SLP214 T00281011 $
 
KABE - Allentown, Pennsylvania, USA
Distance from station: SSE 46mi, 74km
Updated: Wed, 12-May-2021 3:51am PDT
Clear
Clear
 Wind from W
Wind: W 7 mph , 11 km/h
Temperature: 43°F , 6°C
Wind Chill: 39°F , 4°C
Dew Point: 28°F , -2°C
Humidity: 57%
Barometer: 30.20 inHg , 1022.7 hPa
Clouds: Clear
Visibility: 10 miles , 16 km
2021/05/12 10:51 KABE 121051Z 27006KT 10SM CLR 06/M02 A3020 RMK AO2 SLP227 T00611017 $
KXLL - Allentown Queen, Pennsylvania, USA
Distance from station: SSE 50mi, 81km
Updated: Wed, 12-May-2021 4:15am PDT
Clear
Clear
 Wind from WNW
Wind: WNW 10 mph , 17 km/h
Temperature: 45°F , 7°C
Wind Chill: 40°F , 4°C
Dew Point: 32°F , 0°C
Humidity: 61%
Barometer: 30.22 inHg , 1023.4 hPa
Clouds: Clear
Visibility: 10 miles , 16 km
2021/05/12 11:15 KXLL 121115Z AUTO 29009KT 10SM CLR 07/00 A3022 RMK AO2
 
KIPT - Williamsport, Pennsylvania, USA
Distance from station: W 52mi, 84km
Updated: Wed, 12-May-2021 3:54am PDT
Partly Cloudy
Partly Cloudy
 Wind from W
Wind: W 10 mph , 17 km/h
Temperature: 43°F , 6°C
Wind Chill: 37°F , 3°C
Dew Point: 30°F , -1°C
Humidity: 61%
Barometer: 30.23 inHg , 1023.7 hPa
Clouds: Partly Cloudy
Visibility: 10 miles , 16 km
Cloud details: Partly Cloudy 4500 ft
2021/05/12 10:54 KIPT 121054Z 27009KT 10SM SCT045 06/M01 A3023 RMK AO2 SLP238 T00561006
KSEG - Selinsgrove, Pennsylvania, USA
Distance from station: WSW 57mi, 92km
Updated: Wed, 12-May-2021 3:53am PDT
Clear
Clear
 Wind from calm
Wind: Calm
Temperature: 36°F , 2°C
Dew Point: 34°F , 1°C
Humidity: 93%
Barometer: 30.25 inHg , 1024.4 hPa
Clouds: Clear
Visibility: 10 miles , 16 km
2021/05/12 10:53 KSEG 121053Z AUTO 00000KT 10SM CLR 02/01 A3025 RMK AO2 SLP244 T00170006 $
 
KRDG - Reading, Pennsylvania, USA
Distance from station: S 59mi, 95km
Updated: Wed, 12-May-2021 3:54am PDT
Clear
Clear
 Wind from W
Wind: W 3 mph , 6 km/h
Temperature: 45°F , 7°C
Dew Point: 30°F , -1°C
Humidity: 57%
Barometer: 30.21 inHg , 1023 hPa
Clouds: Clear
Visibility: 10 miles , 16 km
2021/05/12 10:54 KRDG 121054Z 28003KT 10SM CLR 07/M01 A3021 RMK AO2 SLP235 T00721006
KUKT - Quakertown Arp, Pennsylvania, USA
Distance from station: SSE 61mi, 98km
Updated: Wed, 12-May-2021 4:15am PDT
Clear
Clear
 Wind from WSW
Wind: WSW 8 mph , 13 km/h
Temperature: 45°F , 7°C
Wind Chill: 41°F , 5°C
Dew Point: 30°F , -1°C
Humidity: 57%
Barometer: 30.20 inHg , 1022.7 hPa
Clouds: Clear
Visibility: 10 miles , 16 km
2021/05/12 11:15 KUKT 121115Z AUTO 24007KT 10SM CLR 07/M01 A3020 RMK A01
 
K12N - Andover, New Jersey, USA
Distance from station: ESE 63mi, 101km
Updated: Wed, 12-May-2021 3:54am PDT

 Wind from calm
Wind: Calm
Temperature: 43°F , 6°C
Dew Point: 32°F , 0°C
Humidity: 66%
Barometer: 30.16 inHg , 1021.3 hPa
2021/05/12 10:54 K12N 121054Z AUTO 00000KT 06/00 A3016 RMK AO1 SLP214 T00610000
KMUI - Muir Aaf/Indiant, Pennsylvania, USA
Distance from station: SSW 65mi, 105km
Updated: Wed, 12-May-2021 3:56am PDT
Clear
Clear
 Wind from W
Wind: W 8 mph , 13 km/h
Temperature: 46°F , 8°C
Wind Chill: 42°F , 6°C
Dew Point: 30°F , -1°C
Humidity: 53%
Barometer: 30.22 inHg , 1023.4 hPa
Clouds: Clear
Visibility: 10 miles , 16 km
2021/05/12 10:56 KMUI 121056Z AUTO 28007KT 10SM CLR 08/M01 A3022 RMK AO2 SLP237 T00781012
 
KFWN - Sussex, New Jersey, USA
Distance from station: E 66mi, 107km
Updated: Wed, 12-May-2021 3:53am PDT
Mostly Cloudy
Mostly Cloudy
 Wind from calm
Wind: Calm
Temperature: 45°F , 7°C
Dew Point: 32°F , 0°C
Humidity: 61%
Barometer: 30.16 inHg , 1021.3 hPa
Clouds: Mostly Cloudy
Visibility: 10 miles , 16 km
Cloud details: Mostly Cloudy 3200 ft
2021/05/12 10:53 KFWN 121053Z AUTO 00000KT 10SM BKN032 07/00 A3016 RMK AO2 SLP213 T00670000
KMSV - Monticello, New York, USA
Distance from station: ENE 67mi, 108km
Updated: Wed, 12-May-2021 3:56am PDT
Overcast
Overcast
 Wind from WNW
Wind: WNW 10 mph , 17 km/h
Temperature: 39°F , 4°C
Wind Chill: 32°F , 0°C
Dew Point: 32°F , 0°C
Humidity: 75%
Barometer: 30.13 inHg , 1020.3 hPa
Clouds: Overcast
Visibility: 10 miles , 16 km
Cloud details: Overcast 2100 ft
2021/05/12 10:56 KMSV 121056Z AUTO 29009KT 10SM OVC021 04/00 A3013 RMK AO2 SLP212 T00390000
 
KBGM - Binghamton, New York, USA
Distance from station: N 69mi, 111km
Updated: Wed, 12-May-2021 3:53am PDT
Overcast
Overcast
 Wind from NW
Wind: NW 13 mph , 20 km/h, Gust: 20 mph , 31 km/h
Temperature: 37°F , 3°C
Wind Chill: 29°F , -2°C
Dew Point: 34°F , 1°C
Humidity: 87%
Barometer: 30.15 inHg , 1021 hPa
Clouds: Overcast
Visibility: 10 miles , 16 km
Cloud details: Overcast 1200 ft
2021/05/12 10:53 KBGM 121053Z 32011G17KT 10SM OVC012 03/01 A3015 RMK AO2 SLP221 T00330011
KPTW - Pottstown, Pennsylvania, USA
Distance from station: SSE 71mi, 114km
Updated: Wed, 12-May-2021 3:54am PDT
Clear
Clear
 Wind from varies
Wind: varies 5 mph , 7 km/h
Temperature: 43°F , 6°C
Wind Chill: 40°F , 4°C
Dew Point: 28°F , -2°C
Humidity: 57%
Barometer: 30.22 inHg , 1023.4 hPa
Clouds: Clear
Visibility: 10 miles , 16 km
2021/05/12 10:54 KPTW 121054Z AUTO VRB04KT 10SM CLR 06/M02 A3022 RMK AO2 SLP232 T00611017
 
KDYL - Doylestown, Pennsylvania, USA
Distance from station: SE 74mi, 119km
Updated: Wed, 12-May-2021 3:54am PDT
Clear
Clear
 Wind from W
Wind: W 7 mph , 11 km/h
Temperature: 45°F , 7°C
Wind Chill: 41°F , 5°C
Dew Point: 28°F , -2°C
Humidity: 53%
Barometer: 30.19 inHg , 1022.4 hPa
Clouds: Clear
Visibility: 10 miles , 16 km
2021/05/12 10:54 KDYL 121054Z AUTO 28006KT 10SM CLR 07/M02 A3019 RMK AO2 SLP223 T00671017
KSMQ - Somerville, New Jersey, USA
Distance from station: ESE 77mi, 124km
Updated: Wed, 12-May-2021 3:53am PDT
Clear
Clear
 Wind from WNW
Wind: WNW 7 mph , 11 km/h
Temperature: 46°F , 8°C
Wind Chill: 42°F , 6°C
Dew Point: 30°F , -1°C
Humidity: 53%
Barometer: 30.16 inHg , 1021.3 hPa
Clouds: Clear
Visibility: 10 miles , 16 km
2021/05/12 10:53 KSMQ 121053Z AUTO 30006KT 10SM CLR 08/M01 A3016 RMK AO2 SLP212 T00831011
 
KLNS - Lancaster, Pennsylvania, USA
Distance from station: SSW 79mi, 127km
Updated: Wed, 12-May-2021 3:53am PDT
Clear
Clear
 Wind from W
Wind: W 6 mph , 9 km/h
Temperature: 43°F , 6°C
Wind Chill: 39°F , 4°C
Dew Point: 28°F , -2°C
Humidity: 57%
Barometer: 30.23 inHg , 1023.7 hPa
Clouds: Clear
Visibility: 10 miles , 16 km
2021/05/12 10:53 KLNS 121053Z 27005KT 10SM CLR 06/M02 A3023 RMK AO2 SLP237 T00611017
KELM - Elmira, New York, USA
Distance from station: NW 82mi, 132km
Updated: Wed, 12-May-2021 3:53am PDT
Clear
Clear
 Wind from S
Wind: S 5 mph , 7 km/h
Temperature: 41°F , 5°C
Wind Chill: 38°F , 3°C
Dew Point: 39°F , 4°C
Humidity: 93%
Barometer: 30.21 inHg , 1023 hPa
Clouds: Clear
Visibility: 10 miles , 16 km
2021/05/12 10:53 KELM 121053Z AUTO 19004KT 10SM CLR 05/04 A3021 RMK AO2 SLP234 T00500039 $
 
KLOM - Philly Wings F, Pennsylvania, USA
Distance from station: SSE 82mi, 132km
Updated: Wed, 12-May-2021 4:15am PDT
Clear
Clear
 Wind from W
Wind: W 7 mph , 11 km/h
Temperature: 45°F , 7°C
Wind Chill: 41°F , 5°C
Dew Point: 30°F , -1°C
Humidity: 57%
Barometer: 30.21 inHg , 1023 hPa
Clouds: Clear
Visibility: 10 miles , 16 km
2021/05/12 11:15 KLOM 121115Z AUTO 27006KT 10SM CLR 07/M01 A3021 RMK AO2 T00741010
KMMU - Morristown Muni, New Jersey, USA
Distance from station: ESE 83mi, 134km
Updated: Wed, 12-May-2021 3:46am PDT
Few Clouds
Few Clouds
 Wind from NNW
Wind: NNW 6 mph , 9 km/h, Gust: 17 mph , 28 km/h
Temperature: 46°F , 8°C
Wind Chill: 43°F , 6°C
Dew Point: 34°F , 1°C
Humidity: 62%
Barometer: 30.16 inHg , 1021.3 hPa
Clouds: Few Clouds
Visibility: 10 miles , 16 km
Cloud details: Few Clouds 25000 ft
2021/05/12 10:46 KMMU 121046Z 33005G15KT 10SM FEW250 08/01 A3016

Metar display script from Saratoga-Weather.org